Time;durP1;ratioP1;P1;durP2;ratioP2;P2;SDS_P1;SDS_P2;PMS_P1;PMS_P2;Temp;Humidity;BMP_temperature;BMP_pressure;BME280_temperature;BME280_humidity;BME280_pressure;Samples;Min_cycle;Max_cycle;Signal;HPM_P1;HPM_P2
2021/12/28 00:00:26;;;;;;;;;;;;;;;-4.94;100.00;99845.69;5071905;28;907;-76
2021/12/28 00:02:53;;;;;;;;;;;;;;;-4.97;100.00;99851.97;5072030;28;839;-75
2021/12/28 00:05:20;;;;;;;;;;;;;;;-4.96;100.00;99847.53;5053789;28;1319;-73
2021/12/28 00:07:47;;;;;;;;;;;;;;;-4.96;100.00;99842.22;5071801;28;1018;-74
2021/12/28 00:10:14;;;;;;;;;;;;;;;-4.95;100.00;99849.25;5037264;28;1264;-75
2021/12/28 00:12:42;;;;;;;;;;;;;;;-4.99;100.00;99845.84;5071917;28;1041;-75
2021/12/28 00:15:30;;;;;;;;;;;;;;;-5.02;100.00;99851.22;5053638;28;1297;-74
2021/12/28 00:18:00;;;;;;;;;;;;;;;-5.02;100.00;99843.28;5071579;28;765;-75
2021/12/28 00:20:26;;;;;;;;;;;;;;;-5.03;100.00;99852.13;5053778;28;1985;-73
2021/12/28 00:22:52;;;;;;;;;;;;;;;-5.07;100.00;99839.91;5071549;28;843;-74
2021/12/28 00:25:19;;;;;;;;;;;;;;;-5.07;100.00;99845.22;5071413;28;1342;-75
2021/12/28 00:27:46;;;;;;;;;;;;;;;-5.08;100.00;99844.34;5071071;28;990;-76
2021/12/28 00:30:12;;;;;;;;;;;;;;;-5.06;100.00;99842.50;5070581;28;788;-76
2021/12/28 00:32:39;;;;;;;;;;;;;;;-5.08;100.00;99840.81;5036951;28;1557;-75
2021/12/28 00:35:06;;;;;;;;;;;;;;;-5.09;100.00;99832.03;5071388;28;1006;-75
2021/12/28 00:37:32;;;;;;;;;;;;;;;-5.10;100.00;99845.31;5070922;28;1264;-76
2021/12/28 00:39:59;;;;;;;;;;;;;;;-5.10;100.00;99837.38;5071156;28;1906;-75
2021/12/28 00:42:25;;;;;;;;;;;;;;;-5.12;100.00;99836.53;5071321;28;1002;-73
2021/12/28 00:44:53;;;;;;;;;;;;;;;-5.16;100.00;99827.81;5052185;28;1268;-75
2021/12/28 00:47:19;;;;;;;;;;;;;;;-5.17;100.00;99836.69;5070723;28;1319;-76
2021/12/28 00:49:45;;;;;;;;;;;;;;;-5.16;100.00;99842.84;5053358;28;1164;-76
2021/12/28 00:52:11;;;;;;;;;;;;;;;-5.18;100.00;99855.25;5071102;28;1006;-75
2021/12/28 00:54:38;;;;;;;;;;;;;;;-5.19;100.00;99845.59;5071442;28;1032;-75
2021/12/28 00:57:04;;;;;;;;;;;;;;;-5.21;100.00;99854.44;5036345;28;1336;-75
2021/12/28 00:59:31;;;;;;;;;;;;;;;-5.26;100.00;99851.06;5071085;28;1910;-73
2021/12/28 01:01:58;;;;;;;;;;;;;;;-5.30;100.00;99852.06;5052876;28;1018;-74
2021/12/28 01:04:25;;;;;;;;;;;;;;;-5.32;100.00;99840.66;5071144;28;986;-75
2021/12/28 01:06:52;;;;;;;;;;;;;;;-5.30;100.00;99852.06;5052749;28;1319;-74
2021/12/28 01:09:18;;;;;;;;;;;;;;;-5.33;100.00;99852.16;5053000;28;1057;-76
2021/12/28 01:11:44;;;;;;;;;;;;;;;-5.33;100.00;99846.88;5070990;28;802;-75
2021/12/28 01:14:10;;;;;;;;;;;;;;;-5.36;100.00;99846.94;5070813;28;987;-75
2021/12/28 01:16:37;;;;;;;;;;;;;;;-5.38;100.00;99846.16;5070435;28;1407;-75
2021/12/28 01:19:05;;;;;;;;;;;;;;;-5.36;100.00;99846.94;5070524;28;1910;-76
2021/12/28 01:21:31;;;;;;;;;;;;;;;-5.36;100.00;99833.72;5053093;28;994;-75
2021/12/28 01:23:58;;;;;;;;;;;;;;;-5.37;100.00;99832.00;5071096;28;895;-75
2021/12/28 01:26:24;;;;;;;;;;;;;;;-5.41;100.00;99825.03;5070580;28;1343;-75
2021/12/28 01:28:50;;;;;;;;;;;;;;;-5.45;100.00;99823.41;5070935;28;784;-75
2021/12/28 01:31:16;;;;;;;;;;;;;;;-5.48;100.00;99832.31;5071169;28;918;-75
2021/12/28 01:33:43;;;;;;;;;;;;;;;-5.48;100.00;99840.22;5036466;28;1281;-75
2021/12/28 01:36:10;;;;;;;;;;;;;;;-5.47;100.00;99843.75;5052475;28;1330;-76
2021/12/28 01:38:36;;;;;;;;;;;;;;;-5.45;100.00;99844.56;5070815;28;1922;-74
2021/12/28 01:41:05;;;;;;;;;;;;;;;-5.45;100.00;99841.94;5072191;28;990;-75
2021/12/28 01:43:32;;;;;;;;;;;;;;;-5.46;100.00;99834.94;5074513;28;1695;-72
2021/12/28 01:48:31;;;;;;;;;;;;;;;-5.50;100.00;99831.50;5031515;28;1342;-76
2021/12/28 01:50:58;;;;;;;;;;;;;;;-5.48;100.00;99834.09;5034442;28;974;-76
2021/12/28 01:53:27;;;;;;;;;;;;;;;-5.49;100.00;99837.63;5034186;28;987;-76
2021/12/28 01:55:55;;;;;;;;;;;;;;;-5.50;100.00;99835.94;5033933;28;1337;-75
2021/12/28 01:58:21;;;;;;;;;;;;;;;-5.50;100.00;99828.00;5034446;28;787;-76
2021/12/28 02:00:49;;;;;;;;;;;;;;;-5.49;100.00;99811.19;5016615;28;1919;-76
2021/12/28 02:03:16;;;;;;;;;;;;;;;-5.48;100.00;99810.28;5034289;28;1065;-76
2021/12/28 02:05:43;;;;;;;;;;;;;;;-5.47;100.00;99809.38;5034298;28;1011;-76
2021/12/28 02:08:12;;;;;;;;;;;;;;;-5.47;100.00;99809.38;5034020;28;1386;-76
2021/12/28 02:10:40;;;;;;;;;;;;;;;-5.46;100.00;99808.47;5034045;28;966;-76
2021/12/28 02:13:07;;;;;;;;;;;;;;;-5.48;100.00;99797.06;5033759;28;991;-76
2021/12/28 02:15:33;;;;;;;;;;;;;;;-5.49;100.00;99790.03;5016366;28;1058;-76
2021/12/28 02:18:00;;;;;;;;;;;;;;;-5.51;100.00;99779.50;5033782;28;1294;-76
2021/12/28 02:20:27;;;;;;;;;;;;;;;-5.52;100.00;99776.91;5033966;28;1914;-75
2021/12/28 02:22:54;;;;;;;;;;;;;;;-5.50;100.00;99778.59;5016267;28;1141;-76
2021/12/28 02:25:20;;;;;;;;;;;;;;;-5.50;100.00;99777.75;4999819;28;806;-75
2021/12/28 02:27:46;;;;;;;;;;;;;;;-5.51;100.00;99771.56;5033591;28;1298;-75
2021/12/28 02:30:14;;;;;;;;;;;;;;;-5.51;100.00;99778.66;5033935;28;991;-76
2021/12/28 02:32:41;;;;;;;;;;;;;;;-5.53;100.00;99783.97;5033555;28;994;-76
2021/12/28 02:35:09;;;;;;;;;;;;;;;-5.55;100.00;99773.44;5033732;28;790;-76
2021/12/28 02:37:36;;;;;;;;;;;;;;;-5.58;100.00;99792.03;5033266;28;1419;-75
2021/12/28 02:40:03;;;;;;;;;;;;;;;-5.55;100.00;99804.31;5033580;28;1914;-75
2021/12/28 02:42:29;;;;;;;;;;;;;;;-5.61;100.00;99800.06;5033588;28;897;-75
2021/12/28 02:44:57;;;;;;;;;;;;;;;-5.61;100.00;99792.13;5034117;28;983;-76
2021/12/28 02:47:23;;;;;;;;;;;;;;;-5.60;100.00;99778.00;5033084;28;1324;-75
2021/12/28 02:49:49;;;;;;;;;;;;;;;-5.61;100.00;99778.03;5033421;28;847;-76
2021/12/28 02:52:16;;;;;;;;;;;;;;;-5.63;100.00;99769.28;5032354;28;884;-75
2021/12/28 02:54:43;;;;;;;;;;;;;;;-5.65;100.00;99779.94;5033729;28;817;-75
2021/12/28 02:57:10;;;;;;;;;;;;;;;-5.65;100.00;99777.28;5033259;28;1330;-76
2021/12/28 02:59:44;;;;;;;;;;;;;;;-5.67;100.00;99771.16;5015811;28;1998;-76
2021/12/28 03:02:10;;;;;;;;;;;;;;;-5.70;100.00;99765.97;5033386;28;1010;-76
2021/12/28 03:04:37;;;;;;;;;;;;;;;-5.73;100.00;99760.78;5033363;28;1071;-76
2021/12/28 03:07:03;;;;;;;;;;;;;;;-5.75;100.00;99757.31;5032965;28;1390;-76
2021/12/28 03:09:29;;;;;;;;;;;;;;;-5.76;100.00;99751.16;5033263;28;773;-76
2021/12/28 03:11:57;;;;;;;;;;;;;;;-5.75;100.00;99752.00;5033050;28;927;-76
2021/12/28 03:14:23;;;;;;;;;;;;;;;-5.77;100.00;99744.13;5033233;28;994;-76
2021/12/28 03:16:50;;;;;;;;;;;;;;;-5.78;100.00;99737.09;5032717;28;1309;-76
2021/12/28 03:19:16;;;;;;;;;;;;;;;-5.78;100.00;99738.91;5015464;28;1915;-76
2021/12/28 03:21:42;;;;;;;;;;;;;;;-5.82;100.00;99735.47;5033502;28;978;-76
2021/12/28 03:24:09;;;;;;;;;;;;;;;-5.80;100.00;99732.78;5029927;28;2582;-75
2021/12/28 03:26:35;;;;;;;;;;;;;;;-5.80;100.00;99716.91;5014438;28;1423;-75
2021/12/28 03:29:04;;;;;;;;;;;;;;;-5.82;100.00;99706.38;5032908;28;1250;-76
2021/12/28 03:31:30;;;;;;;;;;;;;;;-5.80;100.00;99703.69;5032486;28;1023;-76
2021/12/28 03:33:56;;;;;;;;;;;;;;;-5.77;100.00;99687.72;5032673;28;990;-76
2021/12/28 03:36:23;;;;;;;;;;;;;;;-5.75;100.00;99696.50;5032194;28;1316;-76
2021/12/28 03:38:50;;;;;;;;;;;;;;;-5.71;100.00;99711.34;5014756;28;1054;-76
2021/12/28 03:41:17;;;;;;;;;;;;;;;-5.69;100.00;99713.94;5014916;28;1985;-76
2021/12/28 03:43:45;;;;;;;;;;;;;;;-5.68;100.00;99705.94;5032384;28;1073;-76
2021/12/28 03:46:12;;;;;;;;;;;;;;;-5.64;100.00;99709.38;5031945;28;1326;-76
2021/12/28 03:48:41;;;;;;;;;;;;;;;-5.61;100.00;99711.91;5032567;28;1003;-76
2021/12/28 03:51:08;;;;;;;;;;;;;;;-5.62;100.00;99705.78;5028657;28;1559;-75
2021/12/28 03:53:34;;;;;;;;;;;;;;;-5.62;100.00;99711.06;5014783;28;975;-76
2021/12/28 03:56:01;;;;;;;;;;;;;;;-5.64;100.00;99699.66;5016018;28;1408;-76
2021/12/28 03:58:27;;;;;;;;;;;;;;;-5.67;100.00;99691.81;5016512;28;805;-76
2021/12/28 04:00:53;;;;;;;;;;;;;;;-5.65;100.00;99689.13;5033180;28;1985;-76
2021/12/28 04:03:21;;;;;;;;;;;;;;;-5.65;100.00;99679.44;5014181;28;1187;-76
2021/12/28 04:05:47;;;;;;;;;;;;;;;-5.66;100.00;99666.25;5031811;28;844;-75
2021/12/28 04:08:19;;;;;;;;;;;;;;;-5.65;100.00;99667.97;5031985;28;1372;-75
2021/12/28 04:10:52;;;;;;;;;;;;;;;-5.64;100.00;99670.56;5032235;28;995;-76
2021/12/28 04:13:19;;;;;;;;;;;;;;;-5.65;100.00;99674.16;5032049;28;1020;-75
2021/12/28 04:15:45;;;;;;;;;;;;;;;-5.63;100.00;99674.94;5031788;28;940;-75
2021/12/28 04:18:11;;;;;;;;;;;;;;;-5.64;100.00;99675.84;5014176;28;1300;-76
2021/12/28 04:20:39;;;;;;;;;;;;;;;-5.64;100.00;99667.91;5013819;28;1911;-76
2021/12/28 04:23:06;;;;;;;;;;;;;;;-5.62;100.00;99659.97;5031887;28;1021;-76
2021/12/28 04:25:33;;;;;;;;;;;;;;;-5.65;100.00;99663.56;5014020;28;1697;-76
2021/12/28 04:27:59;;;;;;;;;;;;;;;-5.65;100.00;99663.56;5031391;28;1306;-75
2021/12/28 04:30:25;;;;;;;;;;;;;;;-5.69;100.00;99655.75;5032079;28;1038;-76
2021/12/28 04:32:52;;;;;;;;;;;;;;;-5.68;100.00;99661.00;5014024;28;896;-76
2021/12/28 04:35:18;;;;;;;;;;;;;;;-5.68;100.00;99652.22;5031683;28;769;-75
2021/12/28 04:37:46;;;;;;;;;;;;;;;-5.71;100.00;99647.88;5013389;28;1267;-76
2021/12/28 04:40:13;;;;;;;;;;;;;;;-5.72;100.00;99638.22;5031774;28;1906;-76
2021/12/28 04:42:40;;;;;;;;;;;;;;;-5.72;100.00;99647.03;5013876;28;1026;-76
2021/12/28 04:45:08;;;;;;;;;;;;;;;-5.72;100.00;99630.28;5031343;28;837;-75
2021/12/28 04:47:34;;;;;;;;;;;;;;;-5.72;100.00;99631.16;5013359;28;1425;-76
2021/12/28 04:50:01;;;;;;;;;;;;;;;-5.70;100.00;99633.75;5013804;28;804;-75
2021/12/28 04:52:28;;;;;;;;;;;;;;;-5.69;100.00;99634.59;5031649;28;853;-76
2021/12/28 04:54:56;;;;;;;;;;;;;;;-5.67;100.00;99628.38;5013358;28;900;-76
2021/12/28 04:57:22;;;;;;;;;;;;;;;-5.68;100.00;99625.78;5031235;28;1407;-76
2021/12/28 04:59:49;;;;;;;;;;;;;;;-5.68;100.00;99639.84;5014088;28;1994;-75
2021/12/28 05:02:15;;;;;;;;;;;;;;;-5.69;100.00;99640.78;5014607;28;1177;-76
2021/12/28 05:04:41;;;;;;;;;;;;;;;-5.66;100.00;99634.53;5031542;28;705;-76
2021/12/28 05:07:07;;;;;;;;;;;;;;;-5.69;100.00;99624.91;5013483;28;1323;-76
2021/12/28 05:09:34;;;;;;;;;;;;;;;-5.70;100.00;99636.41;5031024;28;968;-75
2021/12/28 05:12:02;;;;;;;;;;;;;;;-5.72;100.00;99625.88;5013417;28;1009;-76
2021/12/28 05:14:28;;;;;;;;;;;;;;;-5.73;100.00;99623.28;5030645;28;832;-75
2021/12/28 05:16:56;;;;;;;;;;;;;;;-5.76;100.00;99624.25;5030246;28;1325;-76
2021/12/28 05:19:23;;;;;;;;;;;;;;;-5.77;100.00;99621.63;5031072;28;1232;-75
2021/12/28 05:21:49;;;;;;;;;;;;;;;-5.79;100.00;99613.75;5031118;28;1906;-76
2021/12/28 05:24:15;;;;;;;;;;;;;;;-5.80;100.00;99606.75;5014080;28;1002;-76
2021/12/28 05:26:41;;;;;;;;;;;;;;;-5.79;100.00;99607.59;5029530;28;1342;-75
2021/12/28 05:29:09;;;;;;;;;;;;;;;-5.78;100.00;99604.91;5033436;28;800;-78
2021/12/28 05:31:35;;;;;;;;;;;;;;;-5.73;100.00;99586.28;5027665;28;1447;-77
2021/12/28 05:34:02;;;;;;;;;;;;;;;-5.69;100.00;99593.19;5032431;28;1087;-77
2021/12/28 05:36:28;;;;;;;;;;;;;;;-5.67;100.00;99591.34;4992009;28;1493;-77
2021/12/28 05:38:55;;;;;;;;;;;;;;;-5.65;100.00;99605.41;5026619;28;1503;-77
2021/12/28 05:41:21;;;;;;;;;;;;;;;-5.63;100.00;99600.91;5014841;28;1963;-76
2021/12/28 05:43:47;;;;;;;;;;;;;;;-5.59;100.00;99588.44;5015021;28;979;-77
2021/12/28 05:46:15;;;;;;;;;;;;;;;-5.59;100.00;99581.38;5012870;28;1463;-77
2021/12/28 05:48:41;;;;;;;;;;;;;;;-5.58;100.00;99591.03;5016727;28;1212;-76
2021/12/28 05:51:08;;;;;;;;;;;;;;;-5.59;100.00;99599.88;4998369;28;1376;-76
2021/12/28 05:53:34;;;;;;;;;;;;;;;-5.63;100.00;99600.03;5019970;28;1451;-76
2021/12/28 05:56:00;;;;;;;;;;;;;;;-5.61;100.00;99598.19;5013476;28;1552;-77
2021/12/28 05:58:26;;;;;;;;;;;;;;;-5.59;100.00;99586.66;5019597;28;1543;-75
2021/12/28 06:00:53;;;;;;;;;;;;;;;-5.59;100.00;99605.16;4999897;28;1952;-77
2021/12/28 06:03:20;;;;;;;;;;;;;;;-5.56;100.00;99609.50;5029344;28;1487;-76
2021/12/28 06:05:47;;;;;;;;;;;;;;;-5.49;100.00;99602.22;5011297;28;1094;-76
2021/12/28 06:08:13;;;;;;;;;;;;;;;-5.49;100.00;99603.13;4997543;28;1641;-76
2021/12/28 06:10:40;;;;;;;;;;;;;;;-5.45;100.00;99588.88;5037821;28;1491;-77
2021/12/28 06:13:06;;;;;;;;;;;;;;;-5.43;100.00;99575.59;5038315;28;962;-77
2021/12/28 06:15:33;;;;;;;;;;;;;;;-5.45;100.00;99573.00;5028924;28;1526;-72
2021/12/28 06:17:59;;;;;;;;;;;;;;;-5.46;100.00;99575.69;5016071;28;1525;-75
2021/12/28 06:20:27;;;;;;;;;;;;;;;-5.42;100.00;99574.69;5000970;28;1979;-75
2021/12/28 06:22:53;;;;;;;;;;;;;;;-5.36;100.00;99579.72;5024767;28;1263;-75
2021/12/28 06:25:19;;;;;;;;;;;;;;;-5.32;100.00;99588.44;5022251;28;1239;-76
2021/12/28 06:27:45;;;;;;;;;;;;;;;-5.29;100.00;99583.03;5013471;28;1501;-76
2021/12/28 06:30:12;;;;;;;;;;;;;;;-5.28;100.00;99590.06;5034778;28;1275;-77
2021/12/28 06:32:38;;;;;;;;;;;;;;;-5.27;100.00;99582.06;5018582;28;961;-78
2021/12/28 06:35:05;;;;;;;;;;;;;;;-5.21;100.00;99568.63;5019146;28;1180;-76
2021/12/28 06:37:33;;;;;;;;;;;;;;;-5.23;100.00;99570.47;5018074;28;1356;-76
2021/12/28 06:40:00;;;;;;;;;;;;;;;-5.24;100.00;99574.03;5018253;28;1502;-79
2021/12/28 06:42:26;;;;;;;;;;;;;;;-5.22;100.00;99560.75;5033383;28;1949;-80
2021/12/28 06:44:52;;;;;;;;;;;;;;;-5.17;100.00;99557.94;5026819;28;1343;-80
2021/12/28 06:47:19;;;;;;;;;;;;;;;-5.19;100.00;99568.56;5024023;28;1656;-79
2021/12/28 06:49:45;;;;;;;;;;;;;;;-5.15;100.00;99559.59;5023790;28;1577;-78
2021/12/28 06:52:12;;;;;;;;;;;;;;;-5.14;100.00;99558.69;5033160;28;1585;-79
2021/12/28 06:54:40;;;;;;;;;;;;;;;-5.07;100.00;99557.56;5025441;28;1510;-81
2021/12/28 06:57:08;;;;;;;;;;;;;;;-5.00;100.00;99558.19;5030209;28;1604;-80
2021/12/28 06:59:35;;;;;;;;;;;;;;;-4.99;100.00;99570.50;5046070;28;1006;-80
2021/12/28 07:02:01;;;;;;;;;;;;;;;-4.97;100.00;99555.47;5011382;28;1993;-82
2021/12/28 07:04:27;;;;;;;;;;;;;;;-4.88;100.00;99560.41;5042918;28;1511;-78
2021/12/28 07:06:54;;;;;;;;;;;;;;;-4.85;100.00;99555.91;5042920;28;1484;-82
2021/12/28 07:09:20;;;;;;;;;;;;;;;-4.81;100.00;99546.94;5035298;28;1534;-81
2021/12/28 07:11:48;;;;;;;;;;;;;;;-4.72;100.00;99551.91;5042405;28;1077;-80
2021/12/28 07:14:14;;;;;;;;;;;;;;;-4.72;100.00;99546.59;5029227;28;1550;-79
2021/12/28 07:16:40;;;;;;;;;;;;;;;-4.70;100.00;99547.44;5044273;28;1341;-81
2021/12/28 07:19:10;;;;;;;;;;;;;;;-4.66;100.00;99545.50;5041794;28;1570;-80
2021/12/28 07:21:36;;;;;;;;;;;;;;;-4.65;100.00;99553.41;5049072;28;1918;-78
2021/12/28 07:24:03;;;;;;;;;;;;;;;-4.63;100.00;99550.72;5045364;28;1514;-77
2021/12/28 07:26:29;;;;;;;;;;;;;;;-4.62;100.00;99563.00;5044085;28;1527;-78
2021/12/28 07:28:57;;;;;;;;;;;;;;;-4.56;100.00;99553.06;5039744;28;1482;-79
2021/12/28 07:31:23;;;;;;;;;;;;;;;-4.50;100.00;99554.63;5023457;28;1282;-76
2021/12/28 07:33:49;;;;;;;;;;;;;;;-4.48;100.00;99557.22;5039309;28;1636;-80
2021/12/28 07:36:16;;;;;;;;;;;;;;;-4.51;100.00;99549.38;5041694;28;1382;-79
2021/12/28 07:38:42;;;;;;;;;;;;;;;-4.50;100.00;99535.19;5042901;28;1346;-80
2021/12/28 07:41:09;;;;;;;;;;;;;;;-4.47;100.00;99540.41;5033403;28;1895;-78
2021/12/28 07:43:35;;;;;;;;;;;;;;;-4.43;100.00;99542.00;5043542;28;758;-77
2021/12/28 07:46:03;;;;;;;;;;;;;;;-4.41;100.00;99542.78;5005358;28;1474;-80
2021/12/28 07:48:29;;;;;;;;;;;;;;;-4.43;100.00;99540.19;5017350;28;805;-80
2021/12/28 07:50:55;;;;;;;;;;;;;;;-4.42;100.00;99535.78;5014689;28;987;-81
2021/12/28 07:53:21;;;;;;;;;;;;;;;-4.41;100.00;99535.72;5018973;28;1526;-78
2021/12/28 07:55:48;;;;;;;;;;;;;;;-4.40;100.00;99521.53;5017691;28;1512;-78
2021/12/28 07:58:14;;;;;;;;;;;;;;;-4.34;100.00;99523.09;5031762;28;1371;-79
2021/12/28 08:00:40;;;;;;;;;;;;;;;-4.39;100.00;99530.34;5004098;28;1891;-81
2021/12/28 08:03:08;;;;;;;;;;;;;;;-4.42;100.00;99526.03;5032641;28;1443;-77
2021/12/28 08:05:35;;;;;;;;;;;;;;;-4.38;100.00;99524.16;5023715;28;1398;-76
2021/12/28 08:08:01;;;;;;;;;;;;;;;-4.34;100.00;99508.97;5030531;28;1576;-81
2021/12/28 08:10:28;;;;;;;;;;;;;;;-4.34;100.00;99506.31;5035785;28;1098;-78
2021/12/28 08:12:56;;;;;;;;;;;;;;;-4.36;100.00;99509.03;5016265;28;1356;-78
2021/12/28 08:15:24;;;;;;;;;;;;;;;-4.33;100.00;99495.66;5028938;28;1546;-77
2021/12/28 08:17:50;;;;;;;;;;;;;;;-4.24;100.00;99507.69;5014906;28;1305;-77
2021/12/28 08:20:18;;;;;;;;;;;;;;;-4.28;100.00;99511.38;5028030;28;1224;-77
2021/12/28 08:22:46;;;;;;;;;;;;;;;-4.21;100.00;99512.84;5021965;28;1991;-79
2021/12/28 08:25:14;;;;;;;;;;;;;;;-4.22;100.00;99527.91;5004277;28;1554;-79
2021/12/28 08:27:41;;;;;;;;;;;;;;;-4.15;100.00;99519.72;5018276;28;1545;-78
2021/12/28 08:30:09;;;;;;;;;;;;;;;-4.11;100.00;99531.94;4999061;28;1501;-74
2021/12/28 08:32:37;;;;;;;;;;;;;;;-4.13;100.00;99523.16;5034045;28;1589;-80
2021/12/28 08:35:04;;;;;;;;;;;;;;;-4.12;100.00;99519.59;5042106;28;789;-81
2021/12/28 08:37:33;;;;;;;;;;;;;;;-4.13;100.00;99504.59;5040908;28;1522;-78
2021/12/28 08:40:00;;;;;;;;;;;;;;;-4.11;100.00;99516.03;5039710;28;1075;-78
2021/12/28 08:42:26;;;;;;;;;;;;;;;-4.05;100.00;99510.47;5025269;28;1934;-78
2021/12/28 08:44:52;;;;;;;;;;;;;;;-4.04;100.00;99501.59;5032366;28;898;-76
2021/12/28 08:47:19;;;;;;;;;;;;;;;-3.95;100.00;99503.00;5005407;28;1598;-76
2021/12/28 08:49:45;;;;;;;;;;;;;;;-3.90;100.00;99509.84;5029075;28;1518;-76
2021/12/28 08:52:12;;;;;;;;;;;;;;;-3.85;100.00;99506.13;5011325;28;1176;-76
2021/12/28 08:54:39;;;;;;;;;;;;;;;-3.85;100.00;99508.78;5028425;28;1586;-75
2021/12/28 08:57:06;;;;;;;;;;;;;;;-3.89;100.00;99500.97;5012357;28;1520;-76
2021/12/28 08:59:32;;;;;;;;;;;;;;;-3.79;100.00;99505.91;5027559;28;1612;-75
2021/12/28 09:02:00;;;;;;;;;;;;;;;-3.72;100.00;99499.41;5012447;28;1973;-76
2021/12/28 09:04:26;;;;;;;;;;;;;;;-3.62;100.00;99495.44;5015118;28;1526;-77
2021/12/28 09:06:52;;;;;;;;;;;;;;;-3.59;100.00;99475.88;5016798;28;1640;-76
2021/12/28 09:09:19;;;;;;;;;;;;;;;-3.54;100.00;99479.16;5014815;28;1278;-76
2021/12/28 09:11:46;;;;;;;;;;;;;;;-3.48;100.00;99476.25;5009467;28;1482;-78
2021/12/28 09:14:13;;;;;;;;;;;;;;;-3.46;100.00;99468.22;5014330;28;975;-78
2021/12/28 09:16:39;;;;;;;;;;;;;;;-3.45;100.00;99469.97;5015109;28;1519;-77
2021/12/28 09:19:05;;;;;;;;;;;;;;;-3.39;100.00;99472.34;5029043;28;1304;-77
2021/12/28 09:21:32;;;;;;;;;;;;;;;-3.27;100.00;99463.00;5032208;28;1981;-78
2021/12/28 09:23:58;;;;;;;;;;;;;;;-3.14;100.00;99466.81;5030355;28;1992;-77
2021/12/28 09:26:24;;;;;;;;;;;;;;;-3.07;100.00;99464.75;5027881;28;1408;-77
2021/12/28 09:28:52;;;;;;;;;;;;;;;-3.03;100.00;99467.19;5031452;28;1732;-78
2021/12/28 09:31:18;;;;;;;;;;;;;;;-3.05;100.00;99463.75;5034571;28;1316;-75
2021/12/28 09:33:44;;;;;;;;;;;;;;;-3.04;100.00;99459.28;5014026;28;1569;-78
2021/12/28 09:36:14;;;;;;;;;;;;;;;-2.98;100.00;99467.00;5033725;28;1329;-78
2021/12/28 09:38:41;;;;;;;;;;;;;;;-2.94;100.00;99455.31;5034191;28;1094;-77
2021/12/28 09:41:07;;;;;;;;;;;;;;;-2.89;100.00;99455.06;5016469;28;1918;-77
2021/12/28 09:43:33;;;;;;;;;;;;;;;-2.91;100.00;99457.81;5016535;28;1344;-77
2021/12/28 09:46:01;;;;;;;;;;;;;;;-2.77;100.00;99456.31;5019583;28;1565;-76
2021/12/28 09:48:27;;;;;;;;;;;;;;;-2.69;100.00;99454.16;5026214;28;1313;-77
2021/12/28 09:50:54;;;;;;;;;;;;;;;-2.59;100.00;99457.22;5023282;28;1574;-76
2021/12/28 09:53:20;;;;;;;;;;;;;;;-2.56;100.00;99449.97;5032496;28;777;-77
2021/12/28 09:55:46;;;;;;;;;;;;;;;-2.57;100.00;99442.09;5019734;28;1486;-76
2021/12/28 09:58:13;;;;;;;;;;;;;;;-2.63;100.00;99459.19;5013361;28;1624;-76
2021/12/28 10:00:39;;;;;;;;;;;;;;;-2.62;100.00;99439.66;5033181;28;1526;-77
2021/12/28 10:03:07;;;;;;;;;;;;;;;-2.58;100.00;99445.66;5016637;28;1962;-77
2021/12/28 10:05:34;;;;;;;;;;;;;;;-2.59;100.00;99447.47;4991959;28;1518;-76
2021/12/28 10:08:01;;;;;;;;;;;;;;;-2.57;100.00;99437.63;5027657;28;1534;-76
2021/12/28 10:10:28;;;;;;;;;;;;;;;-2.50;100.00;99438.19;5034142;28;1304;-78
2021/12/28 10:12:56;;;;;;;;;;;;;;;-2.43;100.00;99429.00;5017485;28;1168;-77
2021/12/28 10:15:23;;;;;;;;;;;;;;;-2.43;100.00;99429.00;5034740;28;1483;-74
2021/12/28 10:17:50;;;;;;;;;;;;;;;-2.38;100.00;99418.13;5025969;28;1585;-75
2021/12/28 10:20:19;;;;;;;;;;;;;;;-2.41;100.00;99416.47;5014130;28;887;-77
2021/12/28 10:22:48;;;;;;;;;;;;;;;-2.36;100.00;99416.28;5019268;28;1950;-76
2021/12/28 10:25:15;;;;;;;;;;;;;;;-2.31;100.00;99416.03;5000280;28;1311;-76
2021/12/28 10:27:43;;;;;;;;;;;;;;;-2.32;100.00;99415.19;5033067;28;1486;-77
2021/12/28 10:30:12;;;;;;;;;;;;;;;-2.29;100.00;99412.38;5034736;28;1128;-75
2021/12/28 10:32:39;;;;;;;;;;;;;;;-2.23;100.00;99408.53;5005444;28;1514;-77
2021/12/28 10:35:07;;;;;;;;;;;;;;;-2.24;100.00;99423.66;5013622;28;946;-76
2021/12/28 10:37:35;;;;;;;;;;;;;;;-2.31;100.00;99408.94;5014954;28;1503;-75
2021/12/28 10:40:03;;;;;;;;;;;;;;;-2.38;100.00;99411.03;5029630;28;1407;-74
2021/12/28 10:42:44;;;;;;;;;;;;;;;-2.40;100.00;99412.91;5025867;28;1976;-77
2021/12/28 10:45:11;;;;;;;;;;;;;;;-2.43;100.00;99402.44;5027401;28;1565;-75
2021/12/28 10:47:38;;;;;;;;;;;;;;;-2.39;100.00;99403.16;5034439;28;1273;-77
2021/12/28 10:50:19;;;;;;;;;;;;;;;-2.38;100.00;99402.19;5031676;28;1522;-75
2021/12/28 10:52:51;;;;;;;;;;;;;;;-2.34;100.00;99394.94;5031834;28;1289;-77
2021/12/28 10:55:18;;;;;;;;;;;;;;;-2.37;100.00;99404.75;5028192;28;1225;-75
2021/12/28 10:57:44;;;;;;;;;;;;;;;-2.42;100.00;99395.28;5017550;28;1408;-79
2021/12/28 11:00:26;;;;;;;;;;;;;;;-2.47;100.00;99378.72;5005825;28;1494;-79
2021/12/28 11:02:53;;;;;;;;;;;;;;;-2.42;100.00;99384.66;5018208;28;1960;-79
2021/12/28 11:05:33;;;;;;;;;;;;;;;-2.39;100.00;99387.19;5016645;28;1292;-78
2021/12/28 11:08:01;;;;;;;;;;;;;;;-2.22;100.00;99378.34;5034081;28;1292;-79
2021/12/28 11:10:28;;;;;;;;;;;;;;;-2.09;100.00;99374.16;5018086;28;1637;-76
2021/12/28 11:12:55;;;;;;;;;;;;;;;-2.00;100.00;99372.84;5019227;28;1534;-76
2021/12/28 11:15:21;;;;;;;;;;;;;;;-2.06;100.00;99368.69;5022327;28;942;-77
2021/12/28 11:17:48;;;;;;;;;;;;;;;-2.04;100.00;99361.47;5027615;28;1404;-78
2021/12/28 11:20:14;;;;;;;;;;;;;;;-2.07;100.00;99366.97;5001571;28;1237;-78
2021/12/28 11:22:40;;;;;;;;;;;;;;;-2.00;100.00;99364.84;5015065;28;1915;-78
2021/12/28 11:25:19;;;;;;;;;;;;;;;-1.99;100.00;99366.59;5033687;28;1089;-78
2021/12/28 11:27:45;;;;;;;;;;;;;;;-1.96;100.00;99362.91;5025789;28;1411;-77
2021/12/28 11:30:12;;;;;;;;;;;;;;;-1.97;100.00;99346.06;5033139;28;1037;-75
2021/12/28 11:32:39;;;;;;;;;;;;;;;-1.90;100.00;99335.97;5033322;28;1494;-75
2021/12/28 11:35:06;;;;;;;;;;;;;;;-1.82;100.00;99338.25;5032991;28;789;-75
2021/12/28 11:37:34;;;;;;;;;;;;;;;-1.73;100.00;99338.59;5005983;28;1521;-78
2021/12/28 11:40:02;;;;;;;;;;;;;;;-1.63;100.00;99330.13;5017894;28;979;-78
2021/12/28 11:42:31;;;;;;;;;;;;;;;-1.53;100.00;99326.06;5006975;28;1981;-76
2021/12/28 11:44:58;;;;;;;;;;;;;;;-1.53;100.00;99313.59;5011768;28;1605;-76
2021/12/28 11:47:25;;;;;;;;;;;;;;;-1.53;100.00;99304.75;5022160;28;1360;-75
2021/12/28 11:49:54;;;;;;;;;;;;;;;-1.55;100.00;99296.88;5035524;28;1248;-77
2021/12/28 11:52:21;;;;;;;;;;;;;;;-1.48;100.00;99293.84;5027395;28;1352;-75
2021/12/28 11:54:49;;;;;;;;;;;;;;;-1.44;100.00;99290.06;5044559;28;982;-79
2021/12/28 11:57:17;;;;;;;;;;;;;;;-1.38;100.00;99295.06;5017088;28;1578;-76
2021/12/28 11:59:50;;;;;;;;;;;;;;;-1.39;100.00;99282.69;5018858;28;1483;-77
2021/12/28 12:02:16;;;;;;;;;;;;;;;-1.43;100.00;99274.03;5034623;28;1906;-77
2021/12/28 12:04:48;;;;;;;;;;;;;;;-1.37;100.00;99271.03;5031106;28;1542;-76
2021/12/28 12:07:20;;;;;;;;;;;;;;;-1.38;100.00;99269.34;5019797;28;1534;-77
2021/12/28 12:10:01;;;;;;;;;;;;;;;-1.41;100.00;99268.63;5032118;28;1447;-75
2021/12/28 12:12:28;;;;;;;;;;;;;;;-1.35;100.00;99262.94;5012724;28;1106;-76
2021/12/28 12:15:16;;;;;;;;;;;;;;;-1.35;100.00;99257.63;5024613;28;1546;-76
2021/12/28 12:17:44;;;;;;;;;;;;;;;-1.38;100.00;99245.38;5018274;28;1506;-78
2021/12/28 12:20:22;;;;;;;;;;;;;;;-1.40;100.00;99241.91;4997307;28;1086;-75
2021/12/28 12:22:49;;;;;;;;;;;;;;;-1.36;100.00;99238.13;5022663;28;1887;-78
2021/12/28 12:25:17;;;;;;;;;;;;;;;-1.31;100.00;99221.94;5017157;28;872;-76
2021/12/28 12:27:47;;;;;;;;;;;;;;;-1.30;100.00;99230.75;5006866;28;1549;-77
2021/12/28 12:30:32;;;;;;;;;;;;;;;-1.28;100.00;99221.75;5020286;28;1509;-77
2021/12/28 12:33:04;;;;;;;;;;;;;;;-1.30;100.00;99215.63;5033811;28;1546;-77
2021/12/28 12:35:32;;;;;;;;;;;;;;;-1.29;100.00;99206.72;5009090;28;1482;-77
2021/12/28 12:37:59;;;;;;;;;;;;;;;-1.25;100.00;99210.91;5016697;28;1513;-78
2021/12/28 12:40:40;;;;;;;;;;;;;;;-1.28;100.00;99195.13;5027360;28;1244;-73
2021/12/28 12:43:09;;;;;;;;;;;;;;;-1.23;100.00;99194.84;5021729;28;1950;-75
2021/12/28 12:45:55;;;;;;;;;;;;;;;-1.23;100.00;99190.38;5028200;28;1269;-74
2021/12/28 12:48:31;;;;;;;;;;;;;;;-1.15;100.00;99186.41;5018998;28;1431;-76
2021/12/28 12:51:12;;;;;;;;;;;;;;;-1.11;100.00;99198.63;5024867;28;1506;-76